Airfield :
LOGIN :

Register | Disclaimer

   EN    FR    IT 

 










Legend :    VFR   Marginal VFR   IFR   Intensive IFR   Very Intensive IFR
Visi :
Ceiling :
>= 8 km
>= 3000ft
5 to 8 km
1000 to 3000 ft
1500m to 5 km
500 to 1000 ft
800 to 1500m
200 to 500 ft
< 800m
< 200 ft
Symbols :   Thunderstorms  Fog  Heavy snow  Heavy precipitations  Wind > 20 kt
SIGMETs :     Misc.  Thunderstorms  Icing  Turbulence  Mountain Waves  Volcanic Ashes







- Airport Elevation : 1487 ft
- IATA code : MUC


EDDM - München Franz Josef Strauss

CURRENT METAR :
  • 141450Z 24018KT 9999 FEW034 BKN180 04/M02 Q1001 NOSIG

EXPIRED METARs :
  • 141420Z 23016KT 9999 FEW033 SCT040 BKN250 04/M02 Q1002 NOSIG
  • 141350Z 24019G30KT 9999 FEW037 BKN250 04/M02 Q1002 NOSIG
  • 141320Z 23018KT 9999 FEW035 SCT250 05/M03 Q1002 NOSIG
  • 141250Z 23019KT 9999 FEW033 SCT250 05/M02 Q1002 NOSIG
  • 141220Z 24022KT 9999 FEW032 SCT280 05/M02 Q1002 NOSIG
  • 141150Z 24018KT 9999 FEW030 SCT280 04/M02 Q1002 NOSIG

TAF COR TAF EDDM
Valid from the 14 at 12:00 until the 15 at 18:00 UTC


141152Z 1412/1518 24020G30KT 9000 SCT020
BECMG 1414/1416 22010KT
PROB30
TEMPO 1419/1423 SHRASN BKN015TCU
TEMPO 1420/1501 21015G25KT
TEMPO 1423/1502 RA BKN009
TEMPO 1502/1505 3000 SHSNRA BKN008TCU
BECMG 1502/1504 25015G25KT
TEMPO 1503/1513 25020G35KT
BECMG 1515/1517 23010KT
No reported NOTAMs for that airfield.



MET'MAP, your aeronautical weather chart ! - Copyright ORBIFLY December 2007 - Disclaimer

ORBIFLY MET'MAP TEAM :

Programming & Development : Alexandra Zaïnal
Concept & Development : Baudouin d'Aumeries
Co-Development & Prog : Marc-Olivier Méhu
Technical & hardware support : Manuel Goepfert

Contact : metmap@orbifly.com




SOURCES & CREDITS :

   NOAA